Terminal Aerodrome Forecast
Issued by NWS

Home | Current Version | Previous Version | Text Only | Print | Product List | Glossary On
Versions: 1 2 3 4 5 6 7 8 9 10 11 12 13 14 15 16 17 18 19 20 21 22 23 24 25 26
000
FTUS46 KPQR 202323
TAFONP
TAF
KONP 202323Z 2100/2124 05005KT P6SM SCT010 BKN100
     FM210600 14007KT 4SM -RA BR SCT015 OVC025
     FM210800 18010G18KT 5SM -RA BR SCT015 OVC025
     FM211400 18015G23KT 4SM -RA BR SCT015 OVC025
     FM212000 18020G28KT 2SM -RA BR SCT008 OVC015=

USA.gov is the U.S. government's official web portal to all federal, state and local government web resources and services.